Latest Weather Observations for Hobart

IDT60801

Issued at 10:11 pm EST Friday 8 May 2026 (issued every 10 minutes, with the page automatically refreshed every 10 minutes)

About weather observations | Map of weather stations | Latest weather observations for TAS | Other Formats
Station Details ID: 094029 Name: HOBART (ELLERSLIE ROAD) Lat: -42.89 Lon: 147.33 Height: 50.5 m
Data from the previous 72 hours. | See also: Recent months at Hobart
Date/Time
EST
Temp
°C
App
Temp
°C
Dew
Point
°C
Rel
Hum
%
Delta-T
°C
Wind Press
QNH
hPa
Press
MSL
hPa
Rain since
9am
mm
Dir  Spd
km/h
Gust
km/h
Spd
kts
Gust
kts
08/10:00pm 9.9 7.6 5.5 74 2.0 SW 7 11 4 6 1019.2 1019.3 0.0
08/09:30pm 10.1 7.4 5.7 74 2.0 S 9 13 5 7 1018.7 1018.8 0.0
08/09:00pm 10.0 7.5 5.0 71 2.3 N 7 11 4 6 1018.3 1018.3 0.0
08/08:30pm 11.5 8.0 5.6 67 2.7 ENE 13 17 7 9 1018.4 1018.4 0.0
08/08:00pm 11.0 8.5 4.9 66 2.8 ENE 7 11 4 6 1018.2 1018.2 0.0
08/07:30pm 11.9 8.3 5.1 63 3.1 ENE 13 17 7 9 1017.7 1017.7 0.0
08/07:00pm 12.2 7.9 5.4 63 3.2 ENE 17 20 9 11 1017.9 1017.9 0.0
08/06:30pm 12.1 8.9 5.3 63 3.1 W 11 13 6 7 1018.1 1018.1 0.0
08/06:00pm 12.1 8.2 5.5 64 3.1 SSW 15 28 8 15 1018.1 1018.1 0.0
08/05:30pm 12.1 8.6 5.3 63 3.1 SSW 13 28 7 15 1017.7 1017.7 0.0
08/05:00pm 12.1 8.2 5.5 64 3.1 S 15 28 8 15 1017.5 1017.5 0.0
08/04:30pm 12.7 8.2 6.1 64 3.1 SW 19 33 10 18 1017.4 1017.4 0.0
08/04:00pm 12.9 10.0 6.3 64 3.1 SW 11 22 6 12 1017.0 1017.0 0.0
08/03:30pm 12.7 9.5 6.7 67 2.9 SSW 13 20 7 11 1016.5 1016.5 0.0
08/03:00pm 13.5 9.7 5.9 60 3.6 SW 15 30 8 16 1016.2 1016.2 0.0
08/02:30pm 13.3 9.5 5.9 61 3.5 SW 15 24 8 13 1015.7 1015.7 0.0
08/02:00pm 13.0 9.6 6.1 63 3.3 SSW 13 22 7 12 1015.5 1015.5 0.0
08/01:30pm 12.7 8.1 5.8 63 3.2 SW 19 32 10 17 1015.6 1015.6 0.0
08/01:00pm 12.5 8.3 5.9 64 3.1 SW 17 28 9 15 1015.4 1015.4 0.0
08/12:30pm 13.1 9.2 5.3 59 3.6 SSW 15 30 8 16 1015.2 1015.2 0.0
08/12:00pm 13.1 7.8 4.8 57 3.8 SW 22 39 12 21 1015.0 1015.0 0.0
08/11:30am 12.7 7.7 4.4 57 3.8 SW 20 35 11 19 1014.9 1014.9 0.0
08/11:00am 12.3 6.6 4.8 60 3.4 SSW 24 41 13 22 1014.6 1014.6 0.0
08/10:30am 12.4 6.6 4.4 58 3.6 SSW 24 37 13 20 1014.3 1014.3 0.0
08/10:00am 12.5 7.7 4.7 59 3.6 SW 19 44 10 24 1013.9 1013.9 0.0
08/09:30am 11.8 8.1 4.3 60 3.4 S 13 32 7 17 1013.9 1013.9 0.0
08/09:00am 11.7 7.6 4.4 61 3.3 S 15 37 8 20 1013.4 1013.4 2.8
08/08:30am 10.8 7.1 4.5 65 2.8 S 13 32 7 17 1012.8 1012.8 2.8
08/08:00am 10.1 6.5 4.9 70 2.3 SSW 13 41 7 22 1012.2 1012.2 2.8
08/07:30am 10.2 4.9 4.8 69 2.4 SSW 22 35 12 19 1011.6 1011.6 2.8
08/07:00am 10.1 5.7 4.5 68 2.5 WSW 17 32 9 17 1011.3 1011.3 2.8
08/06:30am 9.5 5.7 5.7 77 1.7 SSW 15 24 8 13 1010.8 1010.8 2.8
08/06:00am 9.8 6.7 5.4 74 2.0 SSW 11 24 6 13 1010.4 1010.4 2.8
08/05:30am 9.8 7.1 5.4 74 2.0 S 9 17 5 9 1009.8 1009.9 2.8
08/05:00am 10.2 7.0 5.2 71 2.3 SSW 11 17 6 9 1009.1 1009.2 2.8
08/04:30am 10.3 6.3 5.1 70 2.4 SW 15 22 8 12 1008.4 1008.5 2.8
08/04:00am 10.6 5.6 4.7 67 2.7 SW 20 33 11 18 1007.7 1007.8 2.8
08/03:35am 10.7 6.7 5.0 68 2.6 S 15 43 8 23 1007.3 1007.4 2.8
08/03:30am 10.5 7.3 5.1 69 2.5 S 11 30 6 16 1007.4 1007.5 2.8
08/03:00am 10.9 6.2 5.2 68 2.6 SSW 19 35 10 19 1007.0 1007.1 2.8
08/02:30am 11.3 7.0 5.2 66 2.8 WSW 17 35 9 19 1006.6 1006.7 2.8
08/02:00am 11.3 6.5 5.8 69 2.6 SW 20 35 11 19 1006.4 1006.5 2.8
08/01:30am 11.2 8.6 6.3 72 2.3 SW 9 20 5 11 1006.2 1006.3 2.8
08/01:00am 11.8 7.0 5.7 66 2.9 SW 20 33 11 18 1005.6 1005.7 2.8
08/12:30am 11.8 5.6 6.1 68 2.7 SW 28 48 15 26 1005.2 1005.3 2.8
08/12:00am 11.6 4.7 6.3 70 2.5 SW 32 59 17 32 1004.7 1004.8 2.8
 
Date/Time
EST
Temp
°C
App
Temp
°C
Dew
Point
°C
Rel
Hum
%
Delta-T
°C
Wind Press
QNH
hPa
Press
MSL
hPa
Rain since
9am
mm
Dir  Spd
km/h
Gust
km/h
Spd
kts
Gust
kts
07/11:38pm 12.0 6.8 7.1 72 2.4 SW 24 63 13 34 1005.0 1005.1 2.8
07/11:30pm 11.0 7.7 7.9 81 1.5 SW 15 28 8 15 1005.1 1005.2 2.8
07/11:00pm 9.1 7.1 7.1 87 0.9 NNE 7 11 4 6 1005.4 1005.5 2.6
07/10:30pm 8.6 5.4 6.7 88 0.9 NNW 13 19 7 10 1005.5 1005.6 2.2
07/10:00pm 8.2 4.1 6.3 88 0.9 NNE 17 26 9 14 1005.3 1005.4 2.0
07/09:30pm 8.4 3.6 5.5 82 1.3 N 20 33 11 18 1005.5 1005.6 0.6
07/09:00pm 8.5 4.5 5.1 79 1.5 N 15 35 8 19 1005.2 1005.3 0.0
07/08:30pm 8.5 3.1 4.3 75 1.8 NNW 22 39 12 21 1004.9 1005.0 0.0
07/08:00pm 7.8 -0.2 4.0 77 1.7 NNW 35 54 19 29 1004.4 1004.5 0.0
07/07:30pm 7.9 0.7 3.2 72 2.0 NNW 30 50 16 27 1005.9 1006.0 0.0
07/07:06pm 8.0 0.9 3.3 72 2.0 NNW 30 54 16 29 1006.6 1006.7 0.0
07/07:00pm 8.0 0.4 3.1 71 2.1 NNW 32 44 17 24 1006.8 1006.9 0.0
07/06:33pm 8.5 0.9 2.7 67 2.5 NNW 32 52 17 28 1007.4 1007.5 0.0
07/06:30pm 8.5 0.9 2.7 67 2.5 NNW 32 44 17 24 1007.5 1007.6 0.0
07/06:01pm 8.7 1.4 2.3 64 2.7 NNW 30 50 16 27 1007.8 1007.9 0.0
07/06:00pm 8.7 1.8 2.3 64 2.7 NNW 28 43 15 23 1007.7 1007.8 0.0
07/05:30pm 8.6 1.6 2.0 63 2.7 NNW 28 44 15 24 1008.4 1008.5 0.0
07/05:00pm 8.8 2.4 1.0 58 3.2 NNW 24 41 13 22 1009.2 1009.3 0.0
07/04:30pm 9.0 2.6 1.0 57 3.3 NNW 24 32 13 17 1009.7 1009.8 0.0
07/04:00pm 9.1 1.6 1.0 57 3.3 NNW 30 43 16 23 1009.9 1010.0 0.0
07/03:30pm 8.9 1.4 0.9 57 3.3 NNW 30 39 16 21 1010.7 1010.7 0.0
07/03:20pm 9.0 1.8 1.0 57 3.3 NNW 28 41 15 22 1010.8 1010.8 0.0
07/03:00pm 9.2 4.9 0.9 56 3.4 NNW 13 22 7 12 1011.2 1011.2 0.0
07/02:30pm 9.3 4.2 0.7 55 3.5 NNW 17 28 9 15 1011.5 1011.5 0.0
07/02:00pm 9.1 3.7 1.0 57 3.3 NNW 19 28 10 15 1012.1 1012.1 0.0
07/01:30pm 9.3 2.9 1.0 56 3.4 NNW 24 33 13 18 1012.3 1012.3 0.0
07/01:00pm 10.1 5.3 -0.1 49 4.1 NW 15 28 8 15 1012.7 1012.7 0.0
07/12:30pm 10.3 5.4 -0.2 48 4.2 NW 15 24 8 13 1013.0 1013.0 0.0
07/12:00pm 9.7 5.4 -1.3 46 4.3 WNW 11 20 6 11 1013.4 1013.4 0.0
07/11:30am 9.8 4.9 -0.7 48 4.2 NW 15 20 8 11 1013.7 1013.7 0.0
07/11:00am 9.5 3.2 -1.2 47 4.2 WSW 22 32 12 17 1014.0 1014.0 0.0
07/10:30am 9.5 2.2 -0.1 51 3.8 WSW 28 43 15 23 1013.8 1013.8 0.0
07/10:00am 9.9 4.0 -0.9 47 4.3 WSW 20 32 11 17 1013.8 1013.8 0.0
07/09:30am 9.1 3.2 -0.8 50 3.9 SW 20 37 11 20 1013.8 1013.8 0.0
07/09:00am 8.7 4.5 -0.6 52 3.6 WSW 11 22 6 12 1013.9 1013.9 4.8
07/08:30am 8.1 3.6 -0.1 56 3.2 W 13 30 7 16 1013.8 1013.8 4.8
07/08:00am 7.4 3.7 0.2 60 2.8 WSW 9 19 5 10 1013.3 1013.3 4.8
07/07:30am 7.1 2.7 0.3 62 2.7 WNW 13 30 7 16 1012.9 1012.9 4.8
07/07:00am 6.5 2.1 0.6 66 2.3 NW 13 17 7 9 1012.3 1012.3 4.8
07/06:30am 6.9 2.5 0.6 64 2.5 W 13 32 7 17 1011.8 1011.8 4.8
07/06:00am 6.7 2.0 0.6 65 2.4 WSW 15 35 8 19 1011.7 1011.7 4.8
07/05:30am 6.8 2.5 0.9 66 2.3 NW 13 20 7 11 1011.0 1011.0 4.8
07/05:00am 6.8 2.5 1.1 67 2.3 WSW 13 24 7 13 1010.6 1010.6 4.8
07/04:30am 6.7 3.5 1.0 67 2.3 W 7 15 4 8 1010.4 1010.4 4.8
07/04:00am 6.8 3.1 2.3 73 1.9 NW 11 19 6 10 1010.1 1010.2 4.6
07/03:30am 6.6 2.5 2.1 73 1.8 WSW 13 20 7 11 1009.9 1010.0 4.6
07/03:00am 6.5 2.6 3.5 81 1.3 S 13 19 7 10 1010.0 1010.1 4.6
07/02:30am 7.0 1.8 3.3 77 1.6 SW 20 26 11 14 1009.8 1009.9 4.6
07/02:00am 7.2 2.5 3.1 75 1.7 WSW 17 26 9 14 1009.6 1009.7 4.6
07/01:30am 7.2 2.2 3.8 79 1.5 WSW 19 28 10 15 1009.1 1009.2 4.6
07/01:00am 8.0 3.4 3.5 73 1.9 SW 17 28 9 15 1009.1 1009.2 4.0
07/12:30am 7.9 5.9 4.5 79 1.5 SW 4 11 2 6 1008.6 1008.7 4.0
07/12:00am 8.2 4.7 3.3 71 2.1 SSW 11 20 6 11 1008.0 1008.1 4.0
 
Date/Time
EST
Temp
°C
App
Temp
°C
Dew
Point
°C
Rel
Hum
%
Delta-T
°C
Wind Press
QNH
hPa
Press
MSL
hPa
Rain since
9am
mm
Dir  Spd
km/h
Gust
km/h
Spd
kts
Gust
kts
06/11:30pm 7.8 5.4 5.1 83 1.2 S 7 11 4 6 1007.8 1007.9 4.0
06/11:00pm 8.0 5.6 5.3 83 1.2 NW 7 11 4 6 1007.6 1007.7 4.0
06/10:30pm 8.3 6.5 5.4 82 1.3 ESE 4 9 2 5 1007.7 1007.8 4.0
06/10:00pm 8.3 7.0 6.1 86 1.0 ESE 2 9 1 5 1008.1 1008.2 4.0
06/09:30pm 8.3 6.6 6.1 86 1.0 SSW 4 7 2 4 1007.9 1008.0 4.0
06/09:00pm 8.5 6.3 6.1 85 1.1 W 7 13 4 7 1007.9 1008.0 4.0
06/08:30pm 8.4 6.7 5.9 84 1.1 WSW 4 9 2 5 1007.6 1007.7 4.0
06/08:00pm 8.5 6.3 6.3 86 1.0 SSW 7 11 4 6 1007.5 1007.6 4.0
06/07:30pm 8.9 6.8 6.5 85 1.1 WSW 7 13 4 7 1007.6 1007.7 4.0
06/07:00pm 9.2 7.2 6.3 82 1.3 NW 6 9 3 5 1007.3 1007.4 4.0
06/06:30pm 9.3 6.8 6.4 82 1.3 WNW 9 15 5 8 1007.4 1007.5 3.8
06/06:00pm 9.2 6.6 6.1 81 1.4 SE 9 13 5 7 1006.4 1006.5 3.2
06/05:30pm 9.1 6.1 6.2 82 1.3 SW 11 19 6 10 1006.6 1006.7 2.6
06/05:00pm 10.1 4.8 6.8 80 1.6 SSW 24 41 13 22 1005.5 1005.6 0.8
06/04:30pm 11.3 4.2 6.6 73 2.2 SSW 33 46 18 25 1005.0 1005.1 0.0
06/04:00pm 12.5 6.6 7.4 71 2.5 SSW 28 48 15 26 1004.9 1005.0 0.0
06/03:58pm 12.6 6.7 7.5 71 2.5 SSW 28 48 15 26 1004.9 1005.0 0.0
06/03:30pm 14.5 10.6 7.3 62 3.5 SE 17 24 9 13 1005.2 1005.3 0.0
06/03:00pm 16.3 12.4 7.0 54 4.6 SSW 17 24 9 13 1005.2 1005.3 0.0
06/02:30pm 18.9 14.5 6.4 44 6.2 WNW 19 35 10 19 1005.7 1005.8 0.0
06/02:00pm 18.8 13.5 4.9 40 6.7 NW 22 33 12 18 1005.9 1006.0 0.0
06/01:49pm 18.8 12.3 4.9 40 6.7 NW 28 46 15 25 1006.0 1006.1 0.0
06/01:30pm 18.7 15.0 6.5 45 6.1 NW 15 32 8 17 1006.3 1006.4 0.0
06/01:00pm 18.1 14.8 8.1 52 5.1 W 15 24 8 13 1006.7 1006.8 0.0
06/12:30pm 19.0 12.3 5.8 42 6.5 NW 30 56 16 30 1006.9 1007.0 0.0
06/12:00pm 19.2 12.3 6.3 43 6.4 NW 32 52 17 28 1007.5 1007.6 0.0
06/11:30am 18.0 10.4 5.9 45 5.9 NW 35 56 19 30 1008.0 1008.1 0.0
06/11:00am 17.8 11.2 6.0 46 5.8 NW 30 54 16 29 1008.4 1008.5 0.0
06/10:34am 17.5 11.4 6.7 49 5.4 NW 28 50 15 27 1008.9 1009.0 0.0
06/10:30am 17.4 11.6 6.3 48 5.5 NW 26 44 14 24 1008.8 1008.9 0.0
06/10:00am 16.5 11.0 5.8 49 5.2 NNW 24 41 13 22 1009.1 1009.2 0.0
06/09:30am 16.4 11.7 6.2 51 5.0 NNW 20 32 11 17 1009.7 1009.8 0.0
06/09:00am 15.7 11.3 7.5 58 4.1 NW 20 32 11 17 1010.4 1010.4 0.0
06/08:30am 14.4 12.0 7.0 61 3.6 NNW 9 17 5 9 1010.7 1010.7 0.0
06/08:00am 13.9 10.7 7.0 63 3.4 NNW 13 20 7 11 1010.7 1010.7 0.0
06/07:30am 12.7 10.3 7.2 69 2.7 NNW 9 13 5 7 1010.4 1010.4 0.0
06/07:00am 11.8 8.9 6.7 71 2.4 NW 11 15 6 8 1010.5 1010.5 0.0
06/06:30am 12.3 8.7 6.6 68 2.7 NNW 15 19 8 10 1010.7 1010.7 0.0
06/06:00am 12.4 9.2 6.7 68 2.7 NNW 13 20 7 11 1010.9 1010.9 0.0
06/05:30am 12.2 9.3 6.7 69 2.6 NW 11 15 6 8 1011.3 1011.3 0.0
06/05:00am 12.6 9.0 6.6 67 2.9 NNW 15 20 8 11 1011.1 1011.1 0.0
06/04:30am 12.0 8.3 6.5 69 2.6 NW 15 20 8 11 1011.2 1011.2 0.0
06/04:00am 11.7 8.3 6.0 68 2.7 NNW 13 20 7 11 1011.5 1011.5 0.0
06/03:30am 12.1 7.4 5.9 66 2.9 NNW 20 26 11 14 1011.9 1011.9 0.0
06/03:00am 12.4 7.7 6.0 65 3.0 NNW 20 30 11 16 1012.3 1012.3 0.0
06/02:30am 12.4 7.7 6.0 65 3.0 NNW 20 28 11 15 1012.4 1012.4 0.0
06/02:00am 12.9 7.4 6.0 63 3.3 NNW 24 39 13 21 1012.5 1012.5 0.0
06/01:30am 12.8 7.7 6.2 64 3.1 NNW 22 33 12 18 1012.8 1012.8 0.0
06/01:00am 12.6 7.2 6.2 65 3.0 NNW 24 32 13 17 1013.1 1013.1 0.0
06/12:30am 12.5 7.5 6.3 66 2.9 NNW 22 35 12 19 1013.3 1013.3 0.0
06/12:00am 12.3 7.8 6.1 66 2.9 NNW 19 32 10 17 1013.5 1013.5 0.0
 
Date/Time
EST
Temp
°C
App
Temp
°C
Dew
Point
°C
Rel
Hum
%
Delta-T
°C
Wind Press
QNH
hPa
Press
MSL
hPa
Rain since
9am
mm
Dir  Spd
km/h
Gust
km/h
Spd
kts
Gust
kts
05/11:30pm 12.6 7.9 6.2 65 3.0 NNW 20 30 11 16 1013.7 1013.7 0.0
05/11:00pm 13.0 7.6 6.4 64 3.2 NNW 24 35 13 19 1014.0 1014.0 0.0
05/10:30pm 13.0 8.6 6.4 64 3.2 NW 19 30 10 16 1014.5 1014.5 0.0

Other formats

Comma delimited format used in spreadsheet applications
http://www.bom.gov.au/fwo/IDT60801/IDT60801.94970.axf

JavaScript Object Notation format (JSON) in row-major order
http://www.bom.gov.au/fwo/IDT60801/IDT60801.94970.json

Data quality

Most of these data are generated automatically and are frequently updated. Quality checks on data are not normally performed. It is possible for incorrect values to appear. Refer to information at About Latest Weather Observations and please check the disclaimer before using these data.